sensor_id;sensor_type;location;lat;lon;timestamp;P1;durP1;ratioP1;P2;durP2;ratioP2
16673;SDS011;8450;52.654;10.326;2023-12-29T00:02:01;4.67;;;1.47;;
16673;SDS011;8450;52.654;10.326;2023-12-29T00:04:26;5.97;;;1.83;;
16673;SDS011;8450;52.654;10.326;2023-12-29T00:06:52;7.37;;;1.47;;
16673;SDS011;8450;52.654;10.326;2023-12-29T00:09:18;8.23;;;2.10;;
16673;SDS011;8450;52.654;10.326;2023-12-29T00:11:46;6.70;;;2.07;;
16673;SDS011;8450;52.654;10.326;2023-12-29T00:14:12;3.43;;;1.80;;
16673;SDS011;8450;52.654;10.326;2023-12-29T00:16:38;5.93;;;2.00;;
16673;SDS011;8450;52.654;10.326;2023-12-29T00:19:03;4.77;;;2.00;;
16673;SDS011;8450;52.654;10.326;2023-12-29T00:21:30;8.50;;;2.30;;
16673;SDS011;8450;52.654;10.326;2023-12-29T00:23:56;2.17;;;1.40;;
16673;SDS011;8450;52.654;10.326;2023-12-29T00:26:21;7.53;;;2.00;;
16673;SDS011;8450;52.654;10.326;2023-12-29T00:28:53;4.60;;;1.73;;
16673;SDS011;8450;52.654;10.326;2023-12-29T00:31:19;5.27;;;2.37;;
16673;SDS011;8450;52.654;10.326;2023-12-29T00:33:45;2.67;;;1.50;;
16673;SDS011;8450;52.654;10.326;2023-12-29T00:36:14;5.70;;;1.90;;
16673;SDS011;8450;52.654;10.326;2023-12-29T00:38:41;4.73;;;1.77;;
16673;SDS011;8450;52.654;10.326;2023-12-29T00:41:06;5.83;;;1.73;;
16673;SDS011;8450;52.654;10.326;2023-12-29T00:43:32;2.10;;;0.97;;
16673;SDS011;8450;52.654;10.326;2023-12-29T00:45:58;3.40;;;1.40;;
16673;SDS011;8450;52.654;10.326;2023-12-29T00:48:25;2.07;;;1.33;;
16673;SDS011;8450;52.654;10.326;2023-12-29T00:50:51;7.30;;;2.03;;
16673;SDS011;8450;52.654;10.326;2023-12-29T00:53:17;3.60;;;1.17;;
16673;SDS011;8450;52.654;10.326;2023-12-29T00:55:42;2.87;;;1.27;;
16673;SDS011;8450;52.654;10.326;2023-12-29T00:58:08;4.87;;;1.63;;
16673;SDS011;8450;52.654;10.326;2023-12-29T01:00:33;5.83;;;2.27;;
16673;SDS011;8450;52.654;10.326;2023-12-29T01:02:59;2.27;;;1.30;;
16673;SDS011;8450;52.654;10.326;2023-12-29T01:05:25;4.13;;;1.47;;
16673;SDS011;8450;52.654;10.326;2023-12-29T01:07:52;2.83;;;2.00;;
16673;SDS011;8450;52.654;10.326;2023-12-29T01:10:18;4.67;;;1.80;;
16673;SDS011;8450;52.654;10.326;2023-12-29T01:12:43;3.73;;;1.80;;
16673;SDS011;8450;52.654;10.326;2023-12-29T01:15:09;3.50;;;2.03;;
16673;SDS011;8450;52.654;10.326;2023-12-29T01:17:35;3.87;;;2.00;;
16673;SDS011;8450;52.654;10.326;2023-12-29T01:20:00;6.63;;;1.70;;
16673;SDS011;8450;52.654;10.326;2023-12-29T01:22:28;6.93;;;2.27;;
16673;SDS011;8450;52.654;10.326;2023-12-29T01:24:54;8.73;;;2.47;;
16673;SDS011;8450;52.654;10.326;2023-12-29T01:27:19;4.03;;;1.63;;
16673;SDS011;8450;52.654;10.326;2023-12-29T01:29:45;5.17;;;1.80;;
16673;SDS011;8450;52.654;10.326;2023-12-29T01:32:10;7.90;;;2.10;;
16673;SDS011;8450;52.654;10.326;2023-12-29T01:34:36;4.73;;;2.03;;
16673;SDS011;8450;52.654;10.326;2023-12-29T01:37:04;8.03;;;1.60;;
16673;SDS011;8450;52.654;10.326;2023-12-29T01:39:30;9.37;;;1.83;;
16673;SDS011;8450;52.654;10.326;2023-12-29T01:41:56;6.37;;;2.10;;
16673;SDS011;8450;52.654;10.326;2023-12-29T01:44:22;5.00;;;2.10;;
16673;SDS011;8450;52.654;10.326;2023-12-29T01:46:51;7.77;;;1.93;;
16673;SDS011;8450;52.654;10.326;2023-12-29T01:49:20;5.37;;;1.67;;
16673;SDS011;8450;52.654;10.326;2023-12-29T01:51:48;4.13;;;1.83;;
16673;SDS011;8450;52.654;10.326;2023-12-29T01:54:16;2.63;;;1.40;;
16673;SDS011;8450;52.654;10.326;2023-12-29T01:56:43;2.17;;;1.50;;
16673;SDS011;8450;52.654;10.326;2023-12-29T01:59:09;9.17;;;1.43;;
16673;SDS011;8450;52.654;10.326;2023-12-29T02:01:35;6.10;;;1.83;;
16673;SDS011;8450;52.654;10.326;2023-12-29T02:04:03;2.23;;;1.30;;
16673;SDS011;8450;52.654;10.326;2023-12-29T02:06:30;6.00;;;1.90;;
16673;SDS011;8450;52.654;10.326;2023-12-29T02:08:58;2.93;;;1.73;;
16673;SDS011;8450;52.654;10.326;2023-12-29T02:11:24;3.63;;;1.73;;
16673;SDS011;8450;52.654;10.326;2023-12-29T02:13:50;6.13;;;2.00;;
16673;SDS011;8450;52.654;10.326;2023-12-29T02:16:18;2.93;;;1.67;;
16673;SDS011;8450;52.654;10.326;2023-12-29T02:18:54;7.53;;;2.53;;
16673;SDS011;8450;52.654;10.326;2023-12-29T02:21:26;3.60;;;1.90;;
16673;SDS011;8450;52.654;10.326;2023-12-29T02:23:51;3.70;;;1.43;;
16673;SDS011;8450;52.654;10.326;2023-12-29T02:26:17;9.97;;;2.30;;
16673;SDS011;8450;52.654;10.326;2023-12-29T02:28:48;4.33;;;2.40;;
16673;SDS011;8450;52.654;10.326;2023-12-29T02:31:19;7.40;;;2.07;;
16673;SDS011;8450;52.654;10.326;2023-12-29T02:33:49;8.27;;;2.50;;
16673;SDS011;8450;52.654;10.326;2023-12-29T02:36:17;5.27;;;1.87;;
16673;SDS011;8450;52.654;10.326;2023-12-29T02:38:44;3.60;;;1.70;;
16673;SDS011;8450;52.654;10.326;2023-12-29T02:41:09;6.40;;;1.93;;
16673;SDS011;8450;52.654;10.326;2023-12-29T02:43:39;5.03;;;1.60;;
16673;SDS011;8450;52.654;10.326;2023-12-29T02:46:05;4.07;;;1.93;;
16673;SDS011;8450;52.654;10.326;2023-12-29T02:48:30;3.73;;;1.87;;
16673;SDS011;8450;52.654;10.326;2023-12-29T02:50:56;10.70;;;1.90;;
16673;SDS011;8450;52.654;10.326;2023-12-29T02:53:21;4.40;;;2.07;;
16673;SDS011;8450;52.654;10.326;2023-12-29T02:55:47;3.63;;;1.73;;
16673;SDS011;8450;52.654;10.326;2023-12-29T02:58:12;6.53;;;2.20;;
16673;SDS011;8450;52.654;10.326;2023-12-29T03:00:38;7.57;;;2.30;;
16673;SDS011;8450;52.654;10.326;2023-12-29T03:03:04;2.30;;;1.30;;
16673;SDS011;8450;52.654;10.326;2023-12-29T03:05:30;3.17;;;1.53;;
16673;SDS011;8450;52.654;10.326;2023-12-29T03:07:56;1.77;;;1.07;;
16673;SDS011;8450;52.654;10.326;2023-12-29T03:10:22;3.60;;;1.63;;
16673;SDS011;8450;52.654;10.326;2023-12-29T03:12:48;3.80;;;1.77;;
16673;SDS011;8450;52.654;10.326;2023-12-29T03:15:14;4.23;;;1.80;;
16673;SDS011;8450;52.654;10.326;2023-12-29T03:17:40;4.87;;;1.93;;
16673;SDS011;8450;52.654;10.326;2023-12-29T03:20:06;8.93;;;2.10;;
16673;SDS011;8450;52.654;10.326;2023-12-29T03:22:32;6.67;;;1.97;;
16673;SDS011;8450;52.654;10.326;2023-12-29T03:24:58;2.93;;;1.50;;
16673;SDS011;8450;52.654;10.326;2023-12-29T03:27:24;6.53;;;1.90;;
16673;SDS011;8450;52.654;10.326;2023-12-29T03:29:49;5.57;;;2.00;;
16673;SDS011;8450;52.654;10.326;2023-12-29T03:32:15;6.23;;;1.90;;
16673;SDS011;8450;52.654;10.326;2023-12-29T03:34:41;5.77;;;1.57;;
16673;SDS011;8450;52.654;10.326;2023-12-29T03:37:06;4.13;;;1.23;;
16673;SDS011;8450;52.654;10.326;2023-12-29T03:39:32;2.47;;;1.20;;
16673;SDS011;8450;52.654;10.326;2023-12-29T03:42:00;2.60;;;1.50;;
16673;SDS011;8450;52.654;10.326;2023-12-29T03:44:26;6.93;;;1.50;;
16673;SDS011;8450;52.654;10.326;2023-12-29T03:46:51;4.73;;;1.67;;
16673;SDS011;8450;52.654;10.326;2023-12-29T03:49:17;2.00;;;1.73;;
16673;SDS011;8450;52.654;10.326;2023-12-29T03:51:43;1.47;;;0.97;;
16673;SDS011;8450;52.654;10.326;2023-12-29T03:54:08;3.30;;;1.77;;
16673;SDS011;8450;52.654;10.326;2023-12-29T03:56:34;2.90;;;2.13;;
16673;SDS011;8450;52.654;10.326;2023-12-29T03:59:00;2.10;;;1.63;;
16673;SDS011;8450;52.654;10.326;2023-12-29T04:01:26;5.57;;;1.73;;
16673;SDS011;8450;52.654;10.326;2023-12-29T04:03:52;4.33;;;1.43;;
16673;SDS011;8450;52.654;10.326;2023-12-29T04:06:18;4.80;;;1.90;;
16673;SDS011;8450;52.654;10.326;2023-12-29T04:08:43;2.80;;;1.60;;
16673;SDS011;8450;52.654;10.326;2023-12-29T04:11:09;3.87;;;1.80;;
16673;SDS011;8450;52.654;10.326;2023-12-29T04:13:35;1.63;;;1.30;;
16673;SDS011;8450;52.654;10.326;2023-12-29T04:16:00;1.40;;;1.30;;
16673;SDS011;8450;52.654;10.326;2023-12-29T04:18:27;2.07;;;1.47;;
16673;SDS011;8450;52.654;10.326;2023-12-29T04:20:53;12.13;;;1.90;;
16673;SDS011;8450;52.654;10.326;2023-12-29T04:23:19;3.27;;;1.50;;
16673;SDS011;8450;52.654;10.326;2023-12-29T04:25:44;5.70;;;1.83;;
16673;SDS011;8450;52.654;10.326;2023-12-29T04:28:11;2.57;;;1.40;;
16673;SDS011;8450;52.654;10.326;2023-12-29T04:30:36;4.20;;;1.33;;
16673;SDS011;8450;52.654;10.326;2023-12-29T04:33:02;1.93;;;1.10;;
16673;SDS011;8450;52.654;10.326;2023-12-29T04:35:30;3.33;;;1.80;;
16673;SDS011;8450;52.654;10.326;2023-12-29T04:37:55;3.83;;;1.73;;
16673;SDS011;8450;52.654;10.326;2023-12-29T04:40:21;5.10;;;1.60;;
16673;SDS011;8450;52.654;10.326;2023-12-29T04:42:46;1.40;;;1.03;;
16673;SDS011;8450;52.654;10.326;2023-12-29T04:45:12;1.10;;;1.00;;
16673;SDS011;8450;52.654;10.326;2023-12-29T04:47:38;3.30;;;1.10;;
16673;SDS011;8450;52.654;10.326;2023-12-29T04:50:03;4.70;;;1.40;;
16673;SDS011;8450;52.654;10.326;2023-12-29T04:52:30;1.30;;;1.20;;
16673;SDS011;8450;52.654;10.326;2023-12-29T04:54:56;1.23;;;1.13;;
16673;SDS011;8450;52.654;10.326;2023-12-29T04:57:22;3.13;;;1.40;;
16673;SDS011;8450;52.654;10.326;2023-12-29T04:59:47;1.60;;;1.10;;
16673;SDS011;8450;52.654;10.326;2023-12-29T05:02:13;3.67;;;1.30;;
16673;SDS011;8450;52.654;10.326;2023-12-29T05:04:38;1.63;;;1.27;;
16673;SDS011;8450;52.654;10.326;2023-12-29T05:07:08;1.57;;;0.90;;
16673;SDS011;8450;52.654;10.326;2023-12-29T05:09:34;5.73;;;1.30;;
16673;SDS011;8450;52.654;10.326;2023-12-29T05:11:59;2.07;;;1.10;;
16673;SDS011;8450;52.654;10.326;2023-12-29T05:14:25;1.67;;;1.30;;
16673;SDS011;8450;52.654;10.326;2023-12-29T05:16:50;2.80;;;1.20;;
16673;SDS011;8450;52.654;10.326;2023-12-29T05:19:16;1.33;;;1.17;;
16673;SDS011;8450;52.654;10.326;2023-12-29T05:21:41;4.67;;;1.37;;
16673;SDS011;8450;52.654;10.326;2023-12-29T05:24:07;2.43;;;1.20;;
16673;SDS011;8450;52.654;10.326;2023-12-29T05:26:33;2.23;;;1.40;;
16673;SDS011;8450;52.654;10.326;2023-12-29T05:28:58;1.63;;;1.53;;
16673;SDS011;8450;52.654;10.326;2023-12-29T05:31:24;2.00;;;1.33;;
16673;SDS011;8450;52.654;10.326;2023-12-29T05:33:50;1.43;;;1.20;;
16673;SDS011;8450;52.654;10.326;2023-12-29T05:36:16;2.37;;;1.20;;
16673;SDS011;8450;52.654;10.326;2023-12-29T05:38:42;1.53;;;1.30;;
16673;SDS011;8450;52.654;10.326;2023-12-29T05:41:12;4.03;;;1.97;;
16673;SDS011;8450;52.654;10.326;2023-12-29T05:43:38;2.90;;;0.97;;
16673;SDS011;8450;52.654;10.326;2023-12-29T05:46:08;3.73;;;1.10;;
16673;SDS011;8450;52.654;10.326;2023-12-29T05:48:35;3.27;;;1.33;;
16673;SDS011;8450;52.654;10.326;2023-12-29T05:51:05;1.77;;;1.03;;
16673;SDS011;8450;52.654;10.326;2023-12-29T05:53:39;1.87;;;1.27;;
16673;SDS011;8450;52.654;10.326;2023-12-29T05:56:04;2.87;;;1.47;;
16673;SDS011;8450;52.654;10.326;2023-12-29T05:58:30;2.63;;;1.60;;
16673;SDS011;8450;52.654;10.326;2023-12-29T06:00:56;2.60;;;1.30;;
16673;SDS011;8450;52.654;10.326;2023-12-29T06:03:22;6.50;;;1.90;;
16673;SDS011;8450;52.654;10.326;2023-12-29T06:05:48;1.77;;;1.10;;
16673;SDS011;8450;52.654;10.326;2023-12-29T06:08:14;1.83;;;1.33;;
16673;SDS011;8450;52.654;10.326;2023-12-29T06:10:39;4.43;;;1.43;;
16673;SDS011;8450;52.654;10.326;2023-12-29T06:13:05;1.67;;;1.33;;
16673;SDS011;8450;52.654;10.326;2023-12-29T06:15:30;2.10;;;1.60;;
16673;SDS011;8450;52.654;10.326;2023-12-29T06:17:56;1.87;;;1.17;;
16673;SDS011;8450;52.654;10.326;2023-12-29T06:20:22;3.73;;;1.70;;
16673;SDS011;8450;52.654;10.326;2023-12-29T06:22:47;3.10;;;1.57;;
16673;SDS011;8450;52.654;10.326;2023-12-29T06:25:13;3.90;;;1.60;;
16673;SDS011;8450;52.654;10.326;2023-12-29T06:27:39;3.50;;;1.43;;
16673;SDS011;8450;52.654;10.326;2023-12-29T06:30:06;3.70;;;1.60;;
16673;SDS011;8450;52.654;10.326;2023-12-29T06:32:32;7.30;;;1.80;;
16673;SDS011;8450;52.654;10.326;2023-12-29T06:34:58;2.93;;;2.23;;
16673;SDS011;8450;52.654;10.326;2023-12-29T06:37:23;2.50;;;1.87;;
16673;SDS011;8450;52.654;10.326;2023-12-29T06:39:49;4.23;;;2.03;;
16673;SDS011;8450;52.654;10.326;2023-12-29T06:42:14;4.03;;;2.17;;
16673;SDS011;8450;52.654;10.326;2023-12-29T06:44:40;7.43;;;2.43;;
16673;SDS011;8450;52.654;10.326;2023-12-29T06:47:05;6.57;;;2.87;;
16673;SDS011;8450;52.654;10.326;2023-12-29T06:49:32;3.10;;;2.43;;
16673;SDS011;8450;52.654;10.326;2023-12-29T06:51:59;6.87;;;2.80;;
16673;SDS011;8450;52.654;10.326;2023-12-29T06:54:25;6.57;;;2.33;;
16673;SDS011;8450;52.654;10.326;2023-12-29T06:56:50;8.27;;;2.80;;
16673;SDS011;8450;52.654;10.326;2023-12-29T06:59:16;7.07;;;2.20;;
16673;SDS011;8450;52.654;10.326;2023-12-29T07:01:43;5.67;;;2.80;;
16673;SDS011;8450;52.654;10.326;2023-12-29T07:04:09;5.53;;;2.93;;
16673;SDS011;8450;52.654;10.326;2023-12-29T07:06:35;4.63;;;2.33;;
16673;SDS011;8450;52.654;10.326;2023-12-29T07:09:01;12.30;;;2.90;;
16673;SDS011;8450;52.654;10.326;2023-12-29T07:11:27;4.27;;;2.47;;
16673;SDS011;8450;52.654;10.326;2023-12-29T07:13:53;5.60;;;2.70;;
16673;SDS011;8450;52.654;10.326;2023-12-29T07:16:19;5.87;;;2.93;;
16673;SDS011;8450;52.654;10.326;2023-12-29T07:18:47;7.70;;;3.37;;
16673;SDS011;8450;52.654;10.326;2023-12-29T07:21:14;6.40;;;2.60;;
16673;SDS011;8450;52.654;10.326;2023-12-29T07:23:40;6.10;;;2.50;;
16673;SDS011;8450;52.654;10.326;2023-12-29T07:26:06;4.23;;;2.60;;
16673;SDS011;8450;52.654;10.326;2023-12-29T07:28:31;8.07;;;2.73;;
16673;SDS011;8450;52.654;10.326;2023-12-29T07:30:57;5.77;;;2.07;;
16673;SDS011;8450;52.654;10.326;2023-12-29T07:33:23;5.70;;;2.60;;
16673;SDS011;8450;52.654;10.326;2023-12-29T07:35:49;4.47;;;2.57;;
16673;SDS011;8450;52.654;10.326;2023-12-29T07:38:15;3.17;;;2.10;;
16673;SDS011;8450;52.654;10.326;2023-12-29T07:40:41;6.60;;;2.73;;
16673;SDS011;8450;52.654;10.326;2023-12-29T07:43:06;10.03;;;2.60;;
16673;SDS011;8450;52.654;10.326;2023-12-29T07:45:33;5.53;;;3.17;;
16673;SDS011;8450;52.654;10.326;2023-12-29T07:47:58;3.33;;;2.60;;
16673;SDS011;8450;52.654;10.326;2023-12-29T07:50:24;6.03;;;2.60;;
16673;SDS011;8450;52.654;10.326;2023-12-29T07:52:49;4.43;;;2.60;;
16673;SDS011;8450;52.654;10.326;2023-12-29T07:55:15;7.47;;;3.03;;
16673;SDS011;8450;52.654;10.326;2023-12-29T07:57:43;6.20;;;2.63;;
16673;SDS011;8450;52.654;10.326;2023-12-29T08:00:09;8.63;;;3.30;;
16673;SDS011;8450;52.654;10.326;2023-12-29T08:02:38;6.87;;;3.23;;
16673;SDS011;8450;52.654;10.326;2023-12-29T08:05:03;4.77;;;1.87;;
16673;SDS011;8450;52.654;10.326;2023-12-29T08:07:29;7.30;;;2.70;;
16673;SDS011;8450;52.654;10.326;2023-12-29T08:09:54;9.37;;;3.00;;
16673;SDS011;8450;52.654;10.326;2023-12-29T08:12:20;3.80;;;2.50;;
16673;SDS011;8450;52.654;10.326;2023-12-29T08:14:45;6.83;;;3.03;;
16673;SDS011;8450;52.654;10.326;2023-12-29T08:17:11;9.30;;;3.07;;
16673;SDS011;8450;52.654;10.326;2023-12-29T08:19:37;4.37;;;2.20;;
16673;SDS011;8450;52.654;10.326;2023-12-29T08:22:03;6.30;;;3.10;;
16673;SDS011;8450;52.654;10.326;2023-12-29T08:24:28;9.40;;;2.93;;
16673;SDS011;8450;52.654;10.326;2023-12-29T08:26:54;6.37;;;3.60;;
16673;SDS011;8450;52.654;10.326;2023-12-29T08:29:19;7.73;;;2.63;;
16673;SDS011;8450;52.654;10.326;2023-12-29T08:31:45;10.70;;;2.93;;
16673;SDS011;8450;52.654;10.326;2023-12-29T08:34:11;7.77;;;3.13;;
16673;SDS011;8450;52.654;10.326;2023-12-29T08:36:37;5.40;;;3.17;;
16673;SDS011;8450;52.654;10.326;2023-12-29T08:39:03;7.77;;;3.50;;
16673;SDS011;8450;52.654;10.326;2023-12-29T08:41:28;8.07;;;3.70;;
16673;SDS011;8450;52.654;10.326;2023-12-29T08:43:54;10.37;;;4.63;;
16673;SDS011;8450;52.654;10.326;2023-12-29T08:46:20;8.30;;;3.67;;
16673;SDS011;8450;52.654;10.326;2023-12-29T08:48:46;10.73;;;4.03;;
16673;SDS011;8450;52.654;10.326;2023-12-29T08:51:11;7.17;;;3.57;;
16673;SDS011;8450;52.654;10.326;2023-12-29T08:53:37;9.23;;;3.77;;
16673;SDS011;8450;52.654;10.326;2023-12-29T08:56:02;5.33;;;3.70;;
16673;SDS011;8450;52.654;10.326;2023-12-29T08:58:28;8.40;;;4.47;;
16673;SDS011;8450;52.654;10.326;2023-12-29T09:00:54;7.33;;;3.70;;
16673;SDS011;8450;52.654;10.326;2023-12-29T09:03:20;8.13;;;3.17;;
16673;SDS011;8450;52.654;10.326;2023-12-29T09:05:46;11.37;;;3.63;;
16673;SDS011;8450;52.654;10.326;2023-12-29T09:08:11;7.57;;;4.50;;
16673;SDS011;8450;52.654;10.326;2023-12-29T09:10:37;7.93;;;3.00;;
16673;SDS011;8450;52.654;10.326;2023-12-29T09:13:03;10.03;;;3.83;;
16673;SDS011;8450;52.654;10.326;2023-12-29T09:15:29;8.90;;;4.20;;
16673;SDS011;8450;52.654;10.326;2023-12-29T09:17:54;4.23;;;2.73;;
16673;SDS011;8450;52.654;10.326;2023-12-29T09:20:20;5.93;;;3.23;;
16673;SDS011;8450;52.654;10.326;2023-12-29T09:22:45;5.17;;;3.00;;
16673;SDS011;8450;52.654;10.326;2023-12-29T09:25:11;13.43;;;4.30;;
16673;SDS011;8450;52.654;10.326;2023-12-29T09:27:37;8.37;;;4.30;;
16673;SDS011;8450;52.654;10.326;2023-12-29T09:30:03;8.07;;;3.50;;
16673;SDS011;8450;52.654;10.326;2023-12-29T09:32:29;7.90;;;2.93;;
16673;SDS011;8450;52.654;10.326;2023-12-29T09:34:55;8.50;;;3.60;;
16673;SDS011;8450;52.654;10.326;2023-12-29T09:37:21;7.30;;;3.80;;
16673;SDS011;8450;52.654;10.326;2023-12-29T09:39:47;15.17;;;3.73;;
16673;SDS011;8450;52.654;10.326;2023-12-29T09:42:14;7.07;;;3.00;;
16673;SDS011;8450;52.654;10.326;2023-12-29T09:44:47;6.27;;;2.63;;
16673;SDS011;8450;52.654;10.326;2023-12-29T09:47:15;8.60;;;3.23;;
16673;SDS011;8450;52.654;10.326;2023-12-29T09:49:45;8.97;;;3.20;;
16673;SDS011;8450;52.654;10.326;2023-12-29T09:52:11;8.03;;;3.20;;
16673;SDS011;8450;52.654;10.326;2023-12-29T09:54:38;9.80;;;3.17;;
16673;SDS011;8450;52.654;10.326;2023-12-29T09:57:05;7.83;;;3.50;;
16673;SDS011;8450;52.654;10.326;2023-12-29T09:59:34;11.67;;;3.43;;
16673;SDS011;8450;52.654;10.326;2023-12-29T10:02:02;3.77;;;2.47;;
16673;SDS011;8450;52.654;10.326;2023-12-29T10:04:37;7.60;;;2.70;;
16673;SDS011;8450;52.654;10.326;2023-12-29T10:07:03;2.80;;;2.10;;
16673;SDS011;8450;52.654;10.326;2023-12-29T10:09:32;7.53;;;2.50;;
16673;SDS011;8450;52.654;10.326;2023-12-29T10:12:02;9.93;;;2.63;;
16673;SDS011;8450;52.654;10.326;2023-12-29T10:14:41;7.00;;;2.40;;
16673;SDS011;8450;52.654;10.326;2023-12-29T10:17:31;4.03;;;1.70;;
16673;SDS011;8450;52.654;10.326;2023-12-29T10:23:16;3.00;;;1.77;;
16673;SDS011;8450;52.654;10.326;2023-12-29T10:25:48;5.13;;;2.47;;
16673;SDS011;8450;52.654;10.326;2023-12-29T10:28:14;3.90;;;2.37;;
16673;SDS011;8450;52.654;10.326;2023-12-29T10:30:42;5.63;;;2.40;;
16673;SDS011;8450;52.654;10.326;2023-12-29T10:33:07;3.57;;;2.13;;
16673;SDS011;8450;52.654;10.326;2023-12-29T10:35:35;5.53;;;2.03;;
16673;SDS011;8450;52.654;10.326;2023-12-29T10:38:08;1.27;;;1.17;;
16673;SDS011;8450;52.654;10.326;2023-12-29T10:40:35;3.37;;;1.73;;
16673;SDS011;8450;52.654;10.326;2023-12-29T10:43:01;3.60;;;1.97;;
16673;SDS011;8450;52.654;10.326;2023-12-29T10:45:31;5.77;;;1.70;;
16673;SDS011;8450;52.654;10.326;2023-12-29T10:47:57;3.90;;;1.83;;
16673;SDS011;8450;52.654;10.326;2023-12-29T10:50:25;3.30;;;1.40;;
16673;SDS011;8450;52.654;10.326;2023-12-29T10:52:52;3.70;;;1.50;;
16673;SDS011;8450;52.654;10.326;2023-12-29T10:55:35;2.57;;;1.07;;
16673;SDS011;8450;52.654;10.326;2023-12-29T10:58:01;1.37;;;1.20;;
16673;SDS011;8450;52.654;10.326;2023-12-29T11:00:29;1.63;;;1.03;;
16673;SDS011;8450;52.654;10.326;2023-12-29T11:02:58;2.27;;;0.97;;
16673;SDS011;8450;52.654;10.326;2023-12-29T11:05:25;2.13;;;1.03;;
16673;SDS011;8450;52.654;10.326;2023-12-29T11:07:51;2.80;;;1.20;;
16673;SDS011;8450;52.654;10.326;2023-12-29T11:10:19;2.87;;;1.60;;
16673;SDS011;8450;52.654;10.326;2023-12-29T11:12:48;1.63;;;1.10;;
16673;SDS011;8450;52.654;10.326;2023-12-29T11:15:14;1.30;;;1.07;;
16673;SDS011;8450;52.654;10.326;2023-12-29T11:17:41;1.87;;;1.23;;
16673;SDS011;8450;52.654;10.326;2023-12-29T11:20:14;5.30;;;1.33;;
16673;SDS011;8450;52.654;10.326;2023-12-29T11:22:45;4.37;;;1.37;;
16673;SDS011;8450;52.654;10.326;2023-12-29T11:25:12;3.00;;;1.47;;
16673;SDS011;8450;52.654;10.326;2023-12-29T11:27:37;5.37;;;2.60;;
16673;SDS011;8450;52.654;10.326;2023-12-29T11:30:04;4.80;;;1.60;;
16673;SDS011;8450;52.654;10.326;2023-12-29T11:32:32;4.47;;;1.67;;
16673;SDS011;8450;52.654;10.326;2023-12-29T11:35:13;3.00;;;1.83;;
16673;SDS011;8450;52.654;10.326;2023-12-29T11:40:33;2.63;;;1.40;;
16673;SDS011;8450;52.654;10.326;2023-12-29T11:43:09;2.43;;;1.53;;
16673;SDS011;8450;52.654;10.326;2023-12-29T11:45:41;1.60;;;1.30;;
16673;SDS011;8450;52.654;10.326;2023-12-29T11:48:07;4.93;;;1.60;;
16673;SDS011;8450;52.654;10.326;2023-12-29T11:50:36;3.83;;;1.70;;
16673;SDS011;8450;52.654;10.326;2023-12-29T11:53:03;2.90;;;1.50;;
16673;SDS011;8450;52.654;10.326;2023-12-29T11:55:36;2.53;;;1.87;;
16673;SDS011;8450;52.654;10.326;2023-12-29T11:58:02;2.37;;;1.50;;
16673;SDS011;8450;52.654;10.326;2023-12-29T12:00:47;3.17;;;1.50;;
16673;SDS011;8450;52.654;10.326;2023-12-29T12:03:26;2.10;;;1.63;;
16673;SDS011;8450;52.654;10.326;2023-12-29T12:05:54;2.20;;;1.50;;
16673;SDS011;8450;52.654;10.326;2023-12-29T12:08:29;3.53;;;2.00;;
16673;SDS011;8450;52.654;10.326;2023-12-29T12:10:57;4.13;;;2.10;;
16673;SDS011;8450;52.654;10.326;2023-12-29T12:13:44;3.07;;;2.20;;
16673;SDS011;8450;52.654;10.326;2023-12-29T12:19:10;2.83;;;1.80;;
16673;SDS011;8450;52.654;10.326;2023-12-29T12:21:36;4.07;;;2.80;;
16673;SDS011;8450;52.654;10.326;2023-12-29T12:24:06;7.97;;;1.90;;
16673;SDS011;8450;52.654;10.326;2023-12-29T12:26:32;3.57;;;1.70;;
16673;SDS011;8450;52.654;10.326;2023-12-29T12:28:59;1.73;;;1.57;;
16673;SDS011;8450;52.654;10.326;2023-12-29T12:31:25;2.33;;;2.13;;
16673;SDS011;8450;52.654;10.326;2023-12-29T12:33:55;2.50;;;1.80;;
16673;SDS011;8450;52.654;10.326;2023-12-29T12:36:21;4.07;;;2.70;;
16673;SDS011;8450;52.654;10.326;2023-12-29T12:38:50;2.30;;;1.90;;
16673;SDS011;8450;52.654;10.326;2023-12-29T12:41:17;4.50;;;2.27;;
16673;SDS011;8450;52.654;10.326;2023-12-29T12:43:44;4.50;;;2.40;;
16673;SDS011;8450;52.654;10.326;2023-12-29T12:46:18;6.03;;;2.53;;
16673;SDS011;8450;52.654;10.326;2023-12-29T12:48:49;5.60;;;2.80;;
16673;SDS011;8450;52.654;10.326;2023-12-29T12:51:15;5.63;;;2.80;;
16673;SDS011;8450;52.654;10.326;2023-12-29T12:53:43;4.97;;;2.67;;
16673;SDS011;8450;52.654;10.326;2023-12-29T12:56:09;3.40;;;3.10;;
16673;SDS011;8450;52.654;10.326;2023-12-29T12:58:36;3.37;;;2.90;;
16673;SDS011;8450;52.654;10.326;2023-12-29T13:01:02;6.07;;;2.70;;
16673;SDS011;8450;52.654;10.326;2023-12-29T13:03:30;5.90;;;2.50;;
16673;SDS011;8450;52.654;10.326;2023-12-29T13:05:57;4.53;;;2.63;;
16673;SDS011;8450;52.654;10.326;2023-12-29T13:08:24;5.40;;;2.13;;
16673;SDS011;8450;52.654;10.326;2023-12-29T13:10:50;4.60;;;2.63;;
16673;SDS011;8450;52.654;10.326;2023-12-29T13:13:16;4.20;;;2.67;;
16673;SDS011;8450;52.654;10.326;2023-12-29T13:15:47;3.70;;;2.87;;
16673;SDS011;8450;52.654;10.326;2023-12-29T13:18:13;4.37;;;2.73;;
16673;SDS011;8450;52.654;10.326;2023-12-29T13:20:48;3.23;;;2.50;;
16673;SDS011;8450;52.654;10.326;2023-12-29T13:23:13;4.70;;;2.77;;
16673;SDS011;8450;52.654;10.326;2023-12-29T13:25:39;3.80;;;2.33;;
16673;SDS011;8450;52.654;10.326;2023-12-29T13:28:07;3.43;;;1.73;;
16673;SDS011;8450;52.654;10.326;2023-12-29T13:30:33;4.83;;;2.30;;
16673;SDS011;8450;52.654;10.326;2023-12-29T13:33:03;3.20;;;1.93;;
16673;SDS011;8450;52.654;10.326;2023-12-29T13:35:37;2.07;;;1.50;;
16673;SDS011;8450;52.654;10.326;2023-12-29T13:38:12;3.03;;;1.47;;
16673;SDS011;8450;52.654;10.326;2023-12-29T13:43:20;3.50;;;1.73;;
16673;SDS011;8450;52.654;10.326;2023-12-29T13:45:47;2.77;;;2.07;;
16673;SDS011;8450;52.654;10.326;2023-12-29T13:48:13;2.80;;;2.07;;
16673;SDS011;8450;52.654;10.326;2023-12-29T13:50:50;2.27;;;1.80;;
16673;SDS011;8450;52.654;10.326;2023-12-29T13:53:19;1.83;;;1.70;;
16673;SDS011;8450;52.654;10.326;2023-12-29T13:55:45;3.57;;;2.43;;
16673;SDS011;8450;52.654;10.326;2023-12-29T13:58:11;3.40;;;1.90;;
16673;SDS011;8450;52.654;10.326;2023-12-29T14:00:38;3.73;;;3.23;;
16673;SDS011;8450;52.654;10.326;2023-12-29T14:03:06;6.20;;;4.30;;
16673;SDS011;8450;52.654;10.326;2023-12-29T14:05:36;4.07;;;1.93;;
16673;SDS011;8450;52.654;10.326;2023-12-29T14:08:16;2.63;;;1.70;;
16673;SDS011;8450;52.654;10.326;2023-12-29T14:10:45;10.17;;;6.97;;
16673;SDS011;8450;52.654;10.326;2023-12-29T14:13:14;3.83;;;3.40;;
16673;SDS011;8450;52.654;10.326;2023-12-29T14:15:42;4.23;;;2.63;;
16673;SDS011;8450;52.654;10.326;2023-12-29T14:18:23;3.03;;;1.93;;
16673;SDS011;8450;52.654;10.326;2023-12-29T14:21:32;3.60;;;2.03;;
16673;SDS011;8450;52.654;10.326;2023-12-29T14:24:10;2.30;;;2.07;;
16673;SDS011;8450;52.654;10.326;2023-12-29T14:29:17;2.63;;;2.43;;
16673;SDS011;8450;52.654;10.326;2023-12-29T14:31:44;3.47;;;2.93;;
16673;SDS011;8450;52.654;10.326;2023-12-29T14:34:10;2.93;;;2.50;;
16673;SDS011;8450;52.654;10.326;2023-12-29T14:36:37;2.30;;;2.10;;
16673;SDS011;8450;52.654;10.326;2023-12-29T14:39:04;4.27;;;2.80;;
16673;SDS011;8450;52.654;10.326;2023-12-29T14:41:31;4.90;;;2.40;;
16673;SDS011;8450;52.654;10.326;2023-12-29T14:43:57;3.03;;;2.30;;
16673;SDS011;8450;52.654;10.326;2023-12-29T14:46:23;3.23;;;2.90;;
16673;SDS011;8450;52.654;10.326;2023-12-29T14:48:49;3.00;;;2.70;;
16673;SDS011;8450;52.654;10.326;2023-12-29T14:51:15;4.07;;;3.20;;
16673;SDS011;8450;52.654;10.326;2023-12-29T14:53:47;3.60;;;2.50;;
16673;SDS011;8450;52.654;10.326;2023-12-29T14:56:13;2.60;;;2.40;;
16673;SDS011;8450;52.654;10.326;2023-12-29T14:58:39;2.27;;;2.07;;
16673;SDS011;8450;52.654;10.326;2023-12-29T15:01:05;3.13;;;1.83;;
16673;SDS011;8450;52.654;10.326;2023-12-29T15:03:32;2.20;;;1.77;;